sensor_id;sensor_type;location;lat;lon;timestamp;pressure;altitude;pressure_sealevel;temperature;humidity
64158;BME280;50449;51.528;5.076;2023-02-03T00:00:20;102440.22;;;9.89;70.57
64158;BME280;50449;51.528;5.076;2023-02-03T00:02:45;102435.88;;;9.88;70.53
64158;BME280;50449;51.528;5.076;2023-02-03T00:05:11;102442.94;;;9.89;70.78
64158;BME280;50449;51.528;5.076;2023-02-03T00:07:37;102448.34;;;9.89;70.26
64158;BME280;50449;51.528;5.076;2023-02-03T00:10:05;102452.06;;;9.88;70.53
64158;BME280;50449;51.528;5.076;2023-02-03T00:12:31;102444.81;;;9.88;70.47
64158;BME280;50449;51.528;5.076;2023-02-03T00:14:56;102452.91;;;9.88;70.35
64158;BME280;50449;51.528;5.076;2023-02-03T00:17:21;102467.41;;;9.87;70.46
64158;BME280;50449;51.528;5.076;2023-02-03T00:19:47;102469.09;;;9.88;70.53
64158;BME280;50449;51.528;5.076;2023-02-03T00:22:13;102462.00;;;9.87;70.47
64158;BME280;50449;51.528;5.076;2023-02-03T00:24:39;102473.66;;;9.88;70.46
64158;BME280;50449;51.528;5.076;2023-02-03T00:27:04;102467.41;;;9.87;70.58
64158;BME280;50449;51.528;5.076;2023-02-03T00:29:30;102472.63;;;9.89;70.54
64158;BME280;50449;51.528;5.076;2023-02-03T00:31:55;102465.56;;;9.88;70.43
64158;BME280;50449;51.528;5.076;2023-02-03T00:34:27;102470.75;;;9.89;70.38
64158;BME280;50449;51.528;5.076;2023-02-03T00:36:52;102483.41;;;9.89;70.50
64158;BME280;50449;51.528;5.076;2023-02-03T00:39:17;102478.22;;;9.87;70.40
64158;BME280;50449;51.528;5.076;2023-02-03T00:41:43;102486.13;;;9.89;70.42
64158;BME280;50449;51.528;5.076;2023-02-03T00:44:08;102481.75;;;9.88;70.27
64158;BME280;50449;51.528;5.076;2023-02-03T00:46:34;102474.50;;;9.88;70.45
64158;BME280;50449;51.528;5.076;2023-02-03T00:49:01;102476.38;;;9.88;70.44
64158;BME280;50449;51.528;5.076;2023-02-03T00:51:26;102476.38;;;9.88;70.33
64158;BME280;50449;51.528;5.076;2023-02-03T00:53:51;102471.78;;;9.88;70.36
64158;BME280;50449;51.528;5.076;2023-02-03T00:56:17;102485.28;;;9.88;70.61
64158;BME280;50449;51.528;5.076;2023-02-03T00:58:42;102490.69;;;9.88;70.53
64158;BME280;50449;51.528;5.076;2023-02-03T01:01:08;102481.75;;;9.88;70.27
64158;BME280;50449;51.528;5.076;2023-02-03T01:03:33;102503.34;;;9.88;70.39
64158;BME280;50449;51.528;5.076;2023-02-03T01:06:17;102508.75;;;9.88;70.55
64158;BME280;50449;51.528;5.076;2023-02-03T01:08:43;102498.97;;;9.87;70.40
64158;BME280;50449;51.528;5.076;2023-02-03T01:11:14;102503.53;;;9.86;70.44
64158;BME280;50449;51.528;5.076;2023-02-03T01:13:41;102500.84;;;9.86;70.13
64158;BME280;50449;51.528;5.076;2023-02-03T01:16:09;102517.03;;;9.86;70.42
64158;BME280;50449;51.528;5.076;2023-02-03T01:18:35;102512.69;;;9.85;70.25
64158;BME280;50449;51.528;5.076;2023-02-03T01:21:08;102504.59;;;9.85;70.35
64158;BME280;50449;51.528;5.076;2023-02-03T01:23:35;102489.22;;;9.86;70.48
64158;BME280;50449;51.528;5.076;2023-02-03T01:26:05;102502.91;;;9.84;70.33
64158;BME280;50449;51.528;5.076;2023-02-03T01:28:30;102477.59;;;9.85;70.35
64158;BME280;50449;51.528;5.076;2023-02-03T01:30:56;102463.25;;;9.85;70.35
64158;BME280;50449;51.528;5.076;2023-02-03T01:33:22;102484.00;;;9.84;70.49
64158;BME280;50449;51.528;5.076;2023-02-03T01:35:47;102495.63;;;9.85;70.55
64158;BME280;50449;51.528;5.076;2023-02-03T01:38:12;102493.78;;;9.85;70.49
64158;BME280;50449;51.528;5.076;2023-02-03T01:40:42;102497.50;;;9.84;70.47
64158;BME280;50449;51.528;5.076;2023-02-03T01:43:09;102482.34;;;9.83;70.34
64158;BME280;50449;51.528;5.076;2023-02-03T01:45:35;102474.03;;;9.85;70.25
64158;BME280;50449;51.528;5.076;2023-02-03T01:48:00;102474.03;;;9.85;70.08
64158;BME280;50449;51.528;5.076;2023-02-03T01:50:30;102474.03;;;9.85;70.34
64158;BME280;50449;51.528;5.076;2023-02-03T01:53:07;102474.91;;;9.85;70.18
64158;BME280;50449;51.528;5.076;2023-02-03T01:55:39;102474.91;;;9.85;70.37
64158;BME280;50449;51.528;5.076;2023-02-03T01:58:12;102472.19;;;9.85;70.27
64158;BME280;50449;51.528;5.076;2023-02-03T02:00:39;102463.25;;;9.85;70.46
64158;BME280;50449;51.528;5.076;2023-02-03T02:03:05;102447.03;;;9.85;70.51
64158;BME280;50449;51.528;5.076;2023-02-03T02:05:37;102441.66;;;9.85;70.64
64158;BME280;50449;51.528;5.076;2023-02-03T02:08:05;102437.09;;;9.85;70.34
64158;BME280;50449;51.528;5.076;2023-02-03T02:10:31;102443.34;;;9.86;70.34
64158;BME280;50449;51.528;5.076;2023-02-03T02:12:59;102430.03;;;9.84;70.42
64158;BME280;50449;51.528;5.076;2023-02-03T02:20:53;102445.22;;;9.85;70.22
64158;BME280;50449;51.528;5.076;2023-02-03T02:26:32;102440.81;;;9.84;70.17
64158;BME280;50449;51.528;5.076;2023-02-03T02:29:27;102445.38;;;9.84;70.36
64158;BME280;50449;51.528;5.076;2023-02-03T02:32:05;102444.56;;;9.83;70.38
64158;BME280;50449;51.528;5.076;2023-02-03T02:34:49;102442.88;;;9.82;70.32
64158;BME280;50449;51.528;5.076;2023-02-03T02:40:22;102430.41;;;9.81;70.32
64158;BME280;50449;51.528;5.076;2023-02-03T02:45:48;102459.06;;;9.82;70.44
64158;BME280;50449;51.528;5.076;2023-02-03T02:48:23;102463.63;;;9.82;70.31
64158;BME280;50449;51.528;5.076;2023-02-03T02:50:54;102458.25;;;9.82;70.41
64158;BME280;50449;51.528;5.076;2023-02-03T02:53:25;102459.06;;;9.82;70.34
64158;BME280;50449;51.528;5.076;2023-02-03T02:55:52;102457.22;;;9.83;70.25
64158;BME280;50449;51.528;5.076;2023-02-03T02:58:21;102440.19;;;9.82;70.38
64158;BME280;50449;51.528;5.076;2023-02-03T03:00:47;102454.53;;;9.83;70.53
64158;BME280;50449;51.528;5.076;2023-02-03T03:03:21;102450.78;;;9.84;70.33
64158;BME280;50449;51.528;5.076;2023-02-03T03:05:55;102449.97;;;9.83;70.10
64158;BME280;50449;51.528;5.076;2023-02-03T03:08:36;102443.72;;;9.83;70.35
64158;BME280;50449;51.528;5.076;2023-02-03T03:11:04;102443.91;;;9.81;70.32
64158;BME280;50449;51.528;5.076;2023-02-03T03:13:34;102448.28;;;9.82;70.27
64158;BME280;50449;51.528;5.076;2023-02-03T03:16:04;102442.03;;;9.82;70.33
64158;BME280;50449;51.528;5.076;2023-02-03T03:19:00;102442.88;;;9.82;70.30
64158;BME280;50449;51.528;5.076;2023-02-03T03:21:31;102438.50;;;9.81;70.12
64158;BME280;50449;51.528;5.076;2023-02-03T03:24:02;102430.41;;;9.81;70.20
64158;BME280;50449;51.528;5.076;2023-02-03T03:26:34;102415.88;;;9.82;70.16
64158;BME280;50449;51.528;5.076;2023-02-03T03:29:18;102412.34;;;9.82;70.38
64158;BME280;50449;51.528;5.076;2023-02-03T03:31:45;102426.91;;;9.81;70.21
64158;BME280;50449;51.528;5.076;2023-02-03T03:34:12;102433.13;;;9.81;70.38
64158;BME280;50449;51.528;5.076;2023-02-03T03:36:43;102428.56;;;9.82;70.63
64158;BME280;50449;51.528;5.076;2023-02-03T03:42:02;102422.13;;;9.83;70.20
64158;BME280;50449;51.528;5.076;2023-02-03T03:44:35;102409.66;;;9.82;70.33
64158;BME280;50449;51.528;5.076;2023-02-03T03:47:19;102407.78;;;9.82;70.35
64158;BME280;50449;51.528;5.076;2023-02-03T03:49:49;102411.53;;;9.81;70.25
64158;BME280;50449;51.528;5.076;2023-02-03T03:52:22;102415.88;;;9.82;70.28
64158;BME280;50449;51.528;5.076;2023-02-03T03:54:50;102423.97;;;9.82;70.27
64158;BME280;50449;51.528;5.076;2023-02-03T03:57:30;102423.16;;;9.82;70.31
64158;BME280;50449;51.528;5.076;2023-02-03T03:59:58;102415.06;;;9.82;70.29
64158;BME280;50449;51.528;5.076;2023-02-03T04:02:25;102406.97;;;9.82;70.19
64158;BME280;50449;51.528;5.076;2023-02-03T04:04:51;102427.72;;;9.81;70.38
64158;BME280;50449;51.528;5.076;2023-02-03T04:07:18;102430.25;;;9.83;70.22
64158;BME280;50449;51.528;5.076;2023-02-03T04:09:44;102445.56;;;9.82;70.33
64158;BME280;50449;51.528;5.076;2023-02-03T04:12:21;102435.63;;;9.83;70.45
64158;BME280;50449;51.528;5.076;2023-02-03T04:14:47;102432.94;;;9.83;70.30
64158;BME280;50449;51.528;5.076;2023-02-03T04:17:12;102432.06;;;9.82;70.22
64158;BME280;50449;51.528;5.076;2023-02-03T04:19:37;102449.97;;;9.83;70.28
64158;BME280;50449;51.528;5.076;2023-02-03T04:22:03;102453.66;;;9.82;69.92
64158;BME280;50449;51.528;5.076;2023-02-03T04:24:28;102456.38;;;9.82;70.20
64158;BME280;50449;51.528;5.076;2023-02-03T04:26:54;102457.22;;;9.83;70.20
64158;BME280;50449;51.528;5.076;2023-02-03T04:29:19;102449.13;;;9.83;70.10
64158;BME280;50449;51.528;5.076;2023-02-03T04:31:44;102443.72;;;9.83;70.14
64158;BME280;50449;51.528;5.076;2023-02-03T04:34:10;102447.25;;;9.83;69.95
64158;BME280;50449;51.528;5.076;2023-02-03T04:36:35;102454.31;;;9.84;70.00
64158;BME280;50449;51.528;5.076;2023-02-03T04:39:00;102464.28;;;9.84;69.92
64158;BME280;50449;51.528;5.076;2023-02-03T04:41:27;102452.44;;;9.85;70.03
64158;BME280;50449;51.528;5.076;2023-02-03T04:43:52;102447.03;;;9.85;70.27
64158;BME280;50449;51.528;5.076;2023-02-03T04:46:18;102451.63;;;9.84;69.96
64158;BME280;50449;51.528;5.076;2023-02-03T04:48:43;102447.91;;;9.85;69.93
64158;BME280;50449;51.528;5.076;2023-02-03T04:51:09;102448.91;;;9.84;70.27
64158;BME280;50449;51.528;5.076;2023-02-03T04:53:35;102446.03;;;9.86;70.16
64158;BME280;50449;51.528;5.076;2023-02-03T04:56:01;102441.88;;;9.83;70.09
64158;BME280;50449;51.528;5.076;2023-02-03T04:58:26;102428.16;;;9.85;70.18
64158;BME280;50449;51.528;5.076;2023-02-03T05:00:53;102430.84;;;9.85;69.88
64158;BME280;50449;51.528;5.076;2023-02-03T05:03:18;102435.22;;;9.86;70.06
64158;BME280;50449;51.528;5.076;2023-02-03T05:05:44;102431.72;;;9.85;69.84
64158;BME280;50449;51.528;5.076;2023-02-03T05:08:09;102421.75;;;9.86;70.01
64158;BME280;50449;51.528;5.076;2023-02-03T05:10:35;102430.66;;;9.86;70.08
64158;BME280;50449;51.528;5.076;2023-02-03T05:13:00;102426.09;;;9.87;69.93
64158;BME280;50449;51.528;5.076;2023-02-03T05:15:25;102424.22;;;9.87;69.92
64158;BME280;50449;51.528;5.076;2023-02-03T05:17:52;102433.19;;;9.88;69.68
64158;BME280;50449;51.528;5.076;2023-02-03T05:20:17;102436.88;;;9.87;69.75
64158;BME280;50449;51.528;5.076;2023-02-03T05:22:42;102449.38;;;9.88;69.64
64158;BME280;50449;51.528;5.076;2023-02-03T05:25:08;102459.13;;;9.89;69.68
64158;BME280;50449;51.528;5.076;2023-02-03T05:27:34;102449.38;;;9.88;69.91
64158;BME280;50449;51.528;5.076;2023-02-03T05:29:59;102453.72;;;9.89;69.63
64158;BME280;50449;51.528;5.076;2023-02-03T05:32:24;102450.00;;;9.90;69.90
64158;BME280;50449;51.528;5.076;2023-02-03T05:34:50;102460.78;;;9.90;69.78
64158;BME280;50449;51.528;5.076;2023-02-03T05:37:15;102465.34;;;9.89;69.71
64158;BME280;50449;51.528;5.076;2023-02-03T05:39:40;102456.25;;;9.90;69.88
64158;BME280;50449;51.528;5.076;2023-02-03T05:42:06;102473.28;;;9.91;69.81
64158;BME280;50449;51.528;5.076;2023-02-03T05:44:31;102460.78;;;9.90;69.41
64158;BME280;50449;51.528;5.076;2023-02-03T05:46:58;102452.50;;;9.91;69.80
64158;BME280;50449;51.528;5.076;2023-02-03T05:49:24;102445.22;;;9.92;69.76
64158;BME280;50449;51.528;5.076;2023-02-03T05:51:51;102456.84;;;9.92;70.00
64158;BME280;50449;51.528;5.076;2023-02-03T05:54:16;102453.16;;;9.93;70.08
64158;BME280;50449;51.528;5.076;2023-02-03T05:56:42;102463.13;;;9.93;70.01
64158;BME280;50449;51.528;5.076;2023-02-03T05:59:08;102463.94;;;9.93;69.77
64158;BME280;50449;51.528;5.076;2023-02-03T06:01:33;102461.25;;;9.93;69.65
64158;BME280;50449;51.528;5.076;2023-02-03T06:04:00;102468.31;;;9.94;69.82
64158;BME280;50449;51.528;5.076;2023-02-03T06:06:25;102457.50;;;9.94;69.66
64158;BME280;50449;51.528;5.076;2023-02-03T06:08:57;102469.13;;;9.95;69.61
64158;BME280;50449;51.528;5.076;2023-02-03T06:11:23;102463.53;;;9.96;69.62
64158;BME280;50449;51.528;5.076;2023-02-03T06:13:49;102454.41;;;9.97;69.62
64158;BME280;50449;51.528;5.076;2023-02-03T06:16:15;102468.94;;;9.96;69.62
64158;BME280;50449;51.528;5.076;2023-02-03T06:18:40;102460.66;;;9.98;69.60
64158;BME280;50449;51.528;5.076;2023-02-03T06:21:06;102466.06;;;9.98;69.47
64158;BME280;50449;51.528;5.076;2023-02-03T06:23:31;102456.09;;;9.99;69.61
64158;BME280;50449;51.528;5.076;2023-02-03T06:25:57;102454.41;;;9.97;70.10
64158;BME280;50449;51.528;5.076;2023-02-03T06:28:25;102465.19;;;9.97;69.87
64158;BME280;50449;51.528;5.076;2023-02-03T06:30:50;102486.78;;;9.97;69.90
64158;BME280;50449;51.528;5.076;2023-02-03T06:33:17;102470.59;;;9.97;69.63
64158;BME280;50449;51.528;5.076;2023-02-03T06:35:43;102461.50;;;9.99;69.60
64158;BME280;50449;51.528;5.076;2023-02-03T06:38:11;102449.88;;;9.98;69.65
64158;BME280;50449;51.528;5.076;2023-02-03T06:40:37;102435.50;;;9.97;69.64
64158;BME280;50449;51.528;5.076;2023-02-03T06:43:02;102444.47;;;9.98;69.84
64158;BME280;50449;51.528;5.076;2023-02-03T06:45:28;102449.00;;;9.97;69.69
64158;BME280;50449;51.528;5.076;2023-02-03T06:47:53;102461.50;;;9.99;69.41
64158;BME280;50449;51.528;5.076;2023-02-03T06:50:18;102460.66;;;9.98;69.60
64158;BME280;50449;51.528;5.076;2023-02-03T06:52:44;102455.25;;;9.98;69.85
64158;BME280;50449;51.528;5.076;2023-02-03T06:55:09;102446.13;;;9.99;69.87
64158;BME280;50449;51.528;5.076;2023-02-03T06:57:41;102451.53;;;9.99;69.61
64158;BME280;50449;51.528;5.076;2023-02-03T07:00:07;102429.91;;;9.99;69.78
64158;BME280;50449;51.528;5.076;2023-02-03T07:02:33;102439.06;;;9.98;69.91
64158;BME280;50449;51.528;5.076;2023-02-03T07:04:58;102449.88;;;9.98;69.86
64158;BME280;50449;51.528;5.076;2023-02-03T07:07:24;102445.47;;;9.97;69.82
64158;BME280;50449;51.528;5.076;2023-02-03T07:09:49;102456.28;;;9.97;69.77
64158;BME280;50449;51.528;5.076;2023-02-03T07:12:14;102468.75;;;9.98;69.77
64158;BME280;50449;51.528;5.076;2023-02-03T07:14:40;102478.69;;;9.97;69.69
64158;BME280;50449;51.528;5.076;2023-02-03T07:17:05;102488.66;;;9.97;69.85
64158;BME280;50449;51.528;5.076;2023-02-03T07:19:31;102490.34;;;9.98;69.70
64158;BME280;50449;51.528;5.076;2023-02-03T07:21:56;102487.66;;;9.98;69.75
64158;BME280;50449;51.528;5.076;2023-02-03T07:24:21;102484.97;;;9.98;69.99
64158;BME280;50449;51.528;5.076;2023-02-03T07:26:47;102508.41;;;9.97;69.79
64158;BME280;50449;51.528;5.076;2023-02-03T07:29:12;102491.19;;;9.99;69.84
64158;BME280;50449;51.528;5.076;2023-02-03T07:31:38;102507.38;;;9.99;69.56
64158;BME280;50449;51.528;5.076;2023-02-03T07:34:03;102517.13;;;10.00;69.66
64158;BME280;50449;51.528;5.076;2023-02-03T07:36:29;102496.38;;;10.00;69.78
64158;BME280;50449;51.528;5.076;2023-02-03T07:38:55;102500.13;;;9.99;69.79
64158;BME280;50449;51.528;5.076;2023-02-03T07:41:20;102499.94;;;10.01;69.79
64158;BME280;50449;51.528;5.076;2023-02-03T07:43:46;102492.66;;;10.01;70.05
64158;BME280;50449;51.528;5.076;2023-02-03T07:46:11;102495.53;;;10.00;69.79
64158;BME280;50449;51.528;5.076;2023-02-03T07:48:37;102499.06;;;10.00;69.78
64158;BME280;50449;51.528;5.076;2023-02-03T07:51:02;102517.97;;;10.00;69.70
64158;BME280;50449;51.528;5.076;2023-02-03T07:53:28;102509.03;;;10.00;69.84
64158;BME280;50449;51.528;5.076;2023-02-03T07:55:53;102509.03;;;10.00;69.69
64158;BME280;50449;51.528;5.076;2023-02-03T07:58:18;102496.59;;;9.99;69.86
64158;BME280;50449;51.528;5.076;2023-02-03T08:00:44;102517.13;;;10.00;69.71
64158;BME280;50449;51.528;5.076;2023-02-03T08:03:09;102516.13;;;10.01;69.68
64158;BME280;50449;51.528;5.076;2023-02-03T08:05:35;102504.47;;;10.00;69.86
64158;BME280;50449;51.528;5.076;2023-02-03T08:08:00;102518.81;;;10.01;69.81
64158;BME280;50449;51.528;5.076;2023-02-03T08:10:26;102507.00;;;10.02;69.75
64158;BME280;50449;51.528;5.076;2023-02-03T08:12:52;102503.47;;;10.01;69.62
64158;BME280;50449;51.528;5.076;2023-02-03T08:15:18;102515.09;;;10.02;69.64
64158;BME280;50449;51.528;5.076;2023-02-03T08:17:44;102528.59;;;10.02;69.79
64158;BME280;50449;51.528;5.076;2023-02-03T08:20:10;102529.63;;;10.01;69.82
64158;BME280;50449;51.528;5.076;2023-02-03T08:22:36;102516.97;;;10.01;69.73
64158;BME280;50449;51.528;5.076;2023-02-03T08:25:01;102529.41;;;10.02;69.85
64158;BME280;50449;51.528;5.076;2023-02-03T08:27:28;102523.19;;;10.02;69.68
64158;BME280;50449;51.528;5.076;2023-02-03T08:29:55;102520.47;;;10.02;69.80
64158;BME280;50449;51.528;5.076;2023-02-03T08:32:21;102520.47;;;10.02;69.83
64158;BME280;50449;51.528;5.076;2023-02-03T08:34:47;102531.28;;;10.02;69.72
64158;BME280;50449;51.528;5.076;2023-02-03T08:37:15;102538.56;;;10.01;69.92
64158;BME280;50449;51.528;5.076;2023-02-03T08:39:41;102538.34;;;10.03;69.79
64158;BME280;50449;51.528;5.076;2023-02-03T08:42:07;102556.41;;;10.02;69.72
64158;BME280;50449;51.528;5.076;2023-02-03T08:44:33;102567.84;;;10.04;69.72
64158;BME280;50449;51.528;5.076;2023-02-03T08:46:59;102570.56;;;10.04;70.14
64158;BME280;50449;51.528;5.076;2023-02-03T08:49:27;102573.44;;;10.03;69.56
64158;BME280;50449;51.528;5.076;2023-02-03T08:51:54;102568.03;;;10.03;69.87
64158;BME280;50449;51.528;5.076;2023-02-03T08:54:19;102576.13;;;10.03;69.69
64158;BME280;50449;51.528;5.076;2023-02-03T08:56:46;102570.75;;;10.03;69.93
64158;BME280;50449;51.528;5.076;2023-02-03T08:59:12;102589.47;;;10.04;69.97
64158;BME280;50449;51.528;5.076;2023-02-03T09:01:38;102583.88;;;10.06;69.81
64158;BME280;50449;51.528;5.076;2023-02-03T09:04:05;102580.31;;;10.05;69.98
64158;BME280;50449;51.528;5.076;2023-02-03T09:06:33;102585.72;;;10.05;69.92
64158;BME280;50449;51.528;5.076;2023-02-03T09:08:59;102583.88;;;10.06;70.00
64158;BME280;50449;51.528;5.076;2023-02-03T09:11:24;102593.81;;;10.05;70.06
64158;BME280;50449;51.528;5.076;2023-02-03T09:13:50;102579.47;;;10.05;70.08
64158;BME280;50449;51.528;5.076;2023-02-03T09:16:16;102585.53;;;10.07;70.11
64158;BME280;50449;51.528;5.076;2023-02-03T09:18:43;102583.66;;;10.07;69.83
64158;BME280;50449;51.528;5.076;2023-02-03T09:21:10;102586.38;;;10.07;69.92
64158;BME280;50449;51.528;5.076;2023-02-03T09:23:35;102587.19;;;10.08;69.76
64158;BME280;50449;51.528;5.076;2023-02-03T09:26:02;102565.59;;;10.08;69.89
64158;BME280;50449;51.528;5.076;2023-02-03T09:28:28;102574.72;;;10.07;69.97
64158;BME280;50449;51.528;5.076;2023-02-03T09:30:58;102569.50;;;10.05;70.00
64158;BME280;50449;51.528;5.076;2023-02-03T09:33:24;102580.13;;;10.07;70.19
64158;BME280;50449;51.528;5.076;2023-02-03T09:35:53;102578.25;;;10.07;70.10
64158;BME280;50449;51.528;5.076;2023-02-03T09:38:19;102582.84;;;10.07;70.16
64158;BME280;50449;51.528;5.076;2023-02-03T09:40:50;102582.66;;;10.08;70.06
64158;BME280;50449;51.528;5.076;2023-02-03T09:43:23;102576.22;;;10.09;70.06
64158;BME280;50449;51.528;5.076;2023-02-03T09:45:59;102600.31;;;10.11;70.09
64158;BME280;50449;51.528;5.076;2023-02-03T09:48:29;102602.16;;;10.10;70.14
64158;BME280;50449;51.528;5.076;2023-02-03T09:50:56;102610.28;;;10.10;70.17
64158;BME280;50449;51.528;5.076;2023-02-03T09:53:33;102611.97;;;10.11;70.13
64158;BME280;50449;51.528;5.076;2023-02-03T09:56:01;102621.72;;;10.12;70.18
64158;BME280;50449;51.528;5.076;2023-02-03T09:58:32;102618.00;;;10.13;70.09
64158;BME280;50449;51.528;5.076;2023-02-03T10:01:00;102607.22;;;10.13;70.04
64158;BME280;50449;51.528;5.076;2023-02-03T10:14:09;102614.25;;;10.14;70.59
64158;BME280;50449;51.528;5.076;2023-02-03T10:19:26;102592.66;;;10.14;70.38
64158;BME280;50449;51.528;5.076;2023-02-03T10:21:56;102602.63;;;10.14;70.56
64158;BME280;50449;51.528;5.076;2023-02-03T10:24:33;102593.50;;;10.15;70.47
64158;BME280;50449;51.528;5.076;2023-02-03T10:27:02;102624.88;;;10.16;70.44
64158;BME280;50449;51.528;5.076;2023-02-03T10:29:41;102626.38;;;10.18;70.56
64158;BME280;50449;51.528;5.076;2023-02-03T10:32:11;102615.34;;;10.20;70.47
64158;BME280;50449;51.528;5.076;2023-02-03T10:34:37;102624.94;;;10.23;70.56
64158;BME280;50449;51.528;5.076;2023-02-03T10:37:32;102614.97;;;10.23;70.70
64158;BME280;50449;51.528;5.076;2023-02-03T10:40:00;102607.72;;;10.24;70.43
64158;BME280;50449;51.528;5.076;2023-02-03T10:42:28;102614.78;;;10.25;70.67
64158;BME280;50449;51.528;5.076;2023-02-03T10:45:14;102618.13;;;10.27;70.28
64158;BME280;50449;51.528;5.076;2023-02-03T10:47:50;102629.75;;;10.27;70.66
64158;BME280;50449;51.528;5.076;2023-02-03T10:50:24;102627.91;;;10.28;70.59
64158;BME280;50449;51.528;5.076;2023-02-03T10:53:19;102628.78;;;10.28;70.72
64158;BME280;50449;51.528;5.076;2023-02-03T10:55:49;102621.28;;;10.30;70.44
64158;BME280;50449;51.528;5.076;2023-02-03T10:58:21;102612.16;;;10.31;70.60
64158;BME280;50449;51.528;5.076;2023-02-03T11:00:54;102632.72;;;10.32;70.42
64158;BME280;50449;51.528;5.076;2023-02-03T11:03:26;102626.50;;;10.32;70.60
64158;BME280;50449;51.528;5.076;2023-02-03T11:08:34;102632.34;;;10.35;70.35
64158;BME280;50449;51.528;5.076;2023-02-03T11:11:19;102642.13;;;10.36;70.67
64158;BME280;50449;51.528;5.076;2023-02-03T11:13:45;102636.72;;;10.36;70.41
64158;BME280;50449;51.528;5.076;2023-02-03T11:16:17;102641.09;;;10.37;70.48
64158;BME280;50449;51.528;5.076;2023-02-03T11:18:54;102648.78;;;10.40;70.66
64158;BME280;50449;51.528;5.076;2023-02-03T11:24:02;102632.84;;;10.46;70.37
64158;BME280;50449;51.528;5.076;2023-02-03T11:26:36;102627.44;;;10.46;70.35
64158;BME280;50449;51.528;5.076;2023-02-03T11:29:05;102650.75;;;10.47;70.20
64158;BME280;50449;51.528;5.076;2023-02-03T11:31:34;102633.28;;;10.49;70.33
64158;BME280;50449;51.528;5.076;2023-02-03T11:34:03;102631.44;;;10.50;70.41
64158;BME280;50449;51.528;5.076;2023-02-03T11:36:33;102631.25;;;10.51;70.38
64158;BME280;50449;51.528;5.076;2023-02-03T11:39:16;102622.91;;;10.53;70.60
64158;BME280;50449;51.528;5.076;2023-02-03T11:41:42;102620.03;;;10.54;70.35
64158;BME280;50449;51.528;5.076;2023-02-03T11:44:17;102615.47;;;10.55;70.36
64158;BME280;50449;51.528;5.076;2023-02-03T11:46:45;102628.97;;;10.55;70.56
64158;BME280;50449;51.528;5.076;2023-02-03T11:52:22;102622.16;;;10.59;70.38
64158;BME280;50449;51.528;5.076;2023-02-03T12:00:25;102631.72;;;10.61;70.66
64158;BME280;50449;51.528;5.076;2023-02-03T12:25:41;102634.09;;;10.71;70.58
64158;BME280;50449;51.528;5.076;2023-02-03T12:30:46;102645.34;;;10.75;70.59
64158;BME280;50449;51.528;5.076;2023-02-03T12:33:28;102636.00;;;10.77;70.81
64158;BME280;50449;51.528;5.076;2023-02-03T12:36:12;102643.06;;;10.78;70.55
64158;BME280;50449;51.528;5.076;2023-02-03T12:39:22;102626.66;;;10.80;70.60
64158;BME280;50449;51.528;5.076;2023-02-03T12:41:30;102645.19;;;10.83;70.63
64158;BME280;50449;51.528;5.076;2023-02-03T12:44:07;102623.75;;;10.81;70.57
64158;BME280;50449;51.528;5.076;2023-02-03T12:46:40;102640.63;;;10.83;70.90
64158;BME280;50449;51.528;5.076;2023-02-03T12:49:30;102635.84;;;10.86;70.86
64158;BME280;50449;51.528;5.076;2023-02-03T12:52:04;102637.53;;;10.87;70.54
64158;BME280;50449;51.528;5.076;2023-02-03T12:54:46;102643.56;;;10.89;70.50
64158;BME280;50449;51.528;5.076;2023-02-03T12:59:54;102647.75;;;10.91;70.42
64158;BME280;50449;51.528;5.076;2023-02-03T13:02:26;102653.75;;;10.93;70.53
64158;BME280;50449;51.528;5.076;2023-02-03T13:04:56;102650.03;;;10.94;70.43
64158;BME280;50449;51.528;5.076;2023-02-03T13:07:45;102640.88;;;10.95;70.59
64158;BME280;50449;51.528;5.076;2023-02-03T13:10:22;102649.66;;;10.97;70.66
64158;BME280;50449;51.528;5.076;2023-02-03T13:12:55;102649.66;;;10.97;70.76
64158;BME280;50449;51.528;5.076;2023-02-03T13:18:04;102655.47;;;11.01;70.62
64158;BME280;50449;51.528;5.076;2023-02-03T13:20:33;102643.66;;;11.02;70.64
64158;BME280;50449;51.528;5.076;2023-02-03T13:23:03;102654.25;;;11.03;70.65
64158;BME280;50449;51.528;5.076;2023-02-03T13:25:37;102656.75;;;11.05;70.42
64158;BME280;50449;51.528;5.076;2023-02-03T13:39:19;102682.38;;;11.09;70.63
64158;BME280;50449;51.528;5.076;2023-02-03T13:41:53;102677.81;;;11.10;70.68
64158;BME280;50449;51.528;5.076;2023-02-03T13:44:24;102669.47;;;11.11;70.83
64158;BME280;50449;51.528;5.076;2023-02-03T13:46:53;102668.47;;;11.12;70.78
64158;BME280;50449;51.528;5.076;2023-02-03T13:49:28;102673.88;;;11.12;70.86
64158;BME280;50449;51.528;5.076;2023-02-03T13:51:54;102683.66;;;11.13;70.95
64158;BME280;50449;51.528;5.076;2023-02-03T13:54:27;102687.22;;;11.14;70.73
64158;BME280;50449;51.528;5.076;2023-02-03T13:56:58;102676.16;;;11.15;70.79
64158;BME280;50449;51.528;5.076;2023-02-03T14:02:29;102676.81;;;11.17;70.86
64158;BME280;50449;51.528;5.076;2023-02-03T14:04:57;102690.34;;;11.17;70.76
64158;BME280;50449;51.528;5.076;2023-02-03T14:12:36;102685.56;;;11.19;70.83
64158;BME280;50449;51.528;5.076;2023-02-03T14:17:53;102690.56;;;11.22;70.91
64158;BME280;50449;51.528;5.076;2023-02-03T14:23:07;102688.69;;;11.23;70.84
64158;BME280;50449;51.528;5.076;2023-02-03T14:25:44;102694.75;;;11.25;70.69
64158;BME280;50449;51.528;5.076;2023-02-03T14:28:20;102698.28;;;11.25;71.02
64158;BME280;50449;51.528;5.076;2023-02-03T14:31:20;102692.03;;;11.25;70.79
64158;BME280;50449;51.528;5.076;2023-02-03T14:33:59;102687.47;;;11.25;70.95
64158;BME280;50449;51.528;5.076;2023-02-03T14:36:46;102693.69;;;11.26;70.80
64158;BME280;50449;51.528;5.076;2023-02-03T14:42:00;102697.88;;;11.29;70.96
64158;BME280;50449;51.528;5.076;2023-02-03T14:44:48;102686.03;;;11.30;70.74
64158;BME280;50449;51.528;5.076;2023-02-03T14:47:43;102697.50;;;11.32;70.66